Time;durP1;ratioP1;P1;durP2;ratioP2;P2;SDS_P1;SDS_P2;PMS_P1;PMS_P2;Temp;Humidity;BMP_temperature;BMP_pressure;BME280_temperature;BME280_humidity;BME280_pressure;Samples;Min_cycle;Max_cycle;Signal;HPM_P1;HPM_P2
2022/08/11 00:01:28;;;;;;;3.23;2.80;;;18.40;19.80;;;18.27;57.44;101903.25;4977106;28;21048;-71
2022/08/11 00:03:59;;;;;;;3.30;2.23;;;18.30;20.60;;;18.32;57.52;101902.56;4977752;28;20454;-72
2022/08/11 00:06:33;;;;;;;3.07;2.63;;;18.20;21.40;;;18.30;57.50;101897.31;4979012;28;20537;-73
2022/08/11 00:09:06;;;;;;;2.50;2.10;;;18.20;21.90;;;18.30;57.55;101891.03;4980678;28;20489;-72
2022/08/11 00:11:38;;;;;;;3.83;2.60;;;18.20;22.40;;;18.25;57.79;101897.16;4975105;28;20442;-71
2022/08/11 00:14:25;;;;;;;4.73;2.57;;;18.20;23.10;;;18.24;58.09;101895.50;4976791;28;20476;-72
2022/08/11 00:17:10;;;;;;;2.50;2.23;;;18.20;23.90;;;18.26;58.09;101890.63;4971412;28;20434;-72
2022/08/11 00:19:47;;;;;;;3.30;2.40;;;18.20;24.40;;;18.16;58.35;101893.06;4974897;28;20879;-72
2022/08/11 00:22:40;;;;;;;7.43;3.40;;;18.10;25.10;;;18.12;58.36;101900.06;4969596;28;21073;-72
2022/08/11 00:25:12;;;;;;;5.17;3.20;;;18.10;25.90;;;18.10;58.55;101892.09;4973311;28;20409;-71
2022/08/11 00:27:44;;;;;;;2.83;2.60;;;18.00;26.60;;;18.02;58.88;101900.59;4972768;28;20469;-72
2022/08/11 00:30:15;;;;;;;5.10;4.13;;;18.00;27.50;;;18.00;59.12;101899.16;4973507;28;20448;-72
2022/08/11 00:32:57;;;;;;;3.87;2.73;;;18.00;28.30;;;18.03;58.90;101893.22;4968339;28;20439;-73
2022/08/11 00:35:32;;;;;;;4.87;3.50;;;17.90;28.90;;;18.01;58.94;101890.69;4974755;28;20657;-72
2022/08/11 00:38:29;;;;;;;4.77;3.17;;;17.90;29.40;;;17.90;59.18;101890.63;4976008;28;20449;-72
2022/08/11 00:41:13;;;;;;;2.97;2.67;;;17.80;30.20;;;17.89;59.52;101892.53;4975354;28;20495;-73
2022/08/11 00:44:13;;;;;;;4.23;2.30;;;17.80;31.60;;;17.89;59.72;101888.94;4970360;28;20461;-72
2022/08/11 00:46:57;;;;;;;3.30;1.97;;;17.80;33.20;;;17.74;60.05;101892.88;4972585;28;20492;-71
2022/08/11 00:49:52;;;;;;;2.93;2.13;;;17.70;34.40;;;17.87;59.70;101893.78;4971483;28;20498;-72
2022/08/11 00:52:44;;;;;;;5.07;2.80;;;17.70;34.90;;;17.84;59.69;101897.00;4973377;28;20417;-71
2022/08/11 00:56:31;;;;;;;5.20;3.30;;;17.70;35.30;;;17.75;59.97;101902.78;4970916;28;20421;-72
2022/08/11 01:00:02;;;;;;;3.63;2.50;;;17.70;36.20;;;17.62;60.25;101891.13;4899983;29;20669;-72
2022/08/11 01:03:16;;;;;;;3.33;2.70;;;17.60;37.60;;;17.73;59.93;101895.84;4972038;28;20463;-72
2022/08/11 01:06:42;;;;;;;3.40;2.30;;;17.60;38.20;;;17.58;60.32;101898.88;4971285;28;20570;-72
2022/08/11 01:09:37;;;;;;;4.23;3.17;;;17.50;39.80;;;17.54;60.60;101900.41;4954308;28;20547;-71
2022/08/11 01:12:26;;;;;;;3.03;2.73;;;17.50;41.20;;;17.54;60.72;101894.94;4981266;28;20438;-73
2022/08/11 01:15:52;;;;;;;4.60;2.60;;;17.40;42.60;;;17.47;60.76;101896.91;4981367;28;20838;-73
2022/08/11 01:19:28;;;;;;;7.30;3.00;;;17.40;43.30;;;17.33;61.09;101903.53;4978501;28;20587;-72
2022/08/11 01:23:06;;;;;;;4.67;3.00;;;17.30;44.60;;;17.29;61.32;101910.50;4934302;29;20546;-71
2022/08/11 01:26:35;;;;;;;5.50;3.00;;;17.30;47.10;;;17.21;61.38;101908.03;4943152;28;20687;-73
2022/08/11 01:30:03;;;;;;;4.73;2.47;;;17.20;48.20;;;17.13;61.82;101908.31;4973494;28;20414;-72
2022/08/11 01:33:15;;;;;;;3.20;2.73;;;17.10;50.20;;;16.97;62.42;101911.56;4948494;28;20813;-73
2022/08/11 01:36:31;;;;;;;4.40;2.37;;;17.00;53.30;;;17.01;62.32;101907.31;4970477;28;21128;-73
2022/08/11 01:40:10;;;;;;;3.90;2.13;;;17.00;55.30;;;17.07;62.18;101906.44;4936273;28;20468;-72
2022/08/11 01:46:49;;;;;;;8.40;2.30;;;17.00;56.90;;;17.17;61.51;101896.72;4912936;28;21027;-72
2022/08/11 01:49:28;;;;;;;3.30;2.33;;;17.10;54.70;;;17.25;61.14;101895.59;4975133;28;20412;-72
2022/08/11 01:52:28;;;;;;;3.30;2.40;;;17.10;54.40;;;17.15;61.33;101897.97;4972107;28;20754;-72
2022/08/11 01:55:30;;;;;;;3.73;2.40;;;17.00;53.80;;;17.12;61.09;101890.22;4979065;28;20449;-71
2022/08/11 01:58:14;;;;;;;2.27;2.07;;;17.00;52.90;;;17.09;61.00;101896.13;4971035;28;20463;-72
2022/08/11 02:00:58;;;;;;;4.43;2.33;;;17.00;52.20;;;17.06;61.21;101889.19;4978623;28;20474;-71
2022/08/11 02:03:44;;;;;;;3.60;2.83;;;17.00;52.70;;;17.09;61.06;101888.75;4970583;28;20473;-73
2022/08/11 02:09:32;;;;;;;2.60;2.40;;;16.90;53.40;;;16.94;61.60;101886.31;4975427;28;20423;-71
2022/08/11 02:12:21;;;;;;;3.10;2.30;;;16.90;53.80;;;17.05;61.31;101889.41;4973045;28;20423;-72
2022/08/11 02:15:08;;;;;;;2.33;1.60;;;16.90;54.70;;;16.93;61.42;101886.56;4981479;28;20445;-72
2022/08/11 02:17:53;;;;;;;4.37;2.60;;;16.90;54.60;;;16.97;61.36;101889.69;4975786;28;20927;-72
2022/08/11 02:23:41;;;;;;;4.43;2.10;;;16.80;55.50;;;16.75;62.02;101883.75;4981890;28;20534;-73
2022/08/11 02:26:41;;;;;;;2.70;2.37;;;16.70;57.40;;;16.72;62.34;101887.72;4972551;28;20431;-70
2022/08/11 02:29:21;;;;;;;4.20;2.37;;;16.60;58.90;;;16.71;62.29;101879.75;4973606;28;20416;-72
2022/08/11 02:35:16;;;;;;;2.80;2.50;;;16.60;60.80;;;16.63;62.53;101878.13;4971337;28;20460;-72
2022/08/11 02:38:01;;;;;;;3.73;2.73;;;16.60;63.90;;;16.61;62.49;101885.69;4972405;28;20990;-72
2022/08/11 02:40:48;;;;;;;4.40;2.93;;;16.50;62.80;;;16.59;62.62;101882.34;4978719;28;20410;-72
2022/08/11 02:43:39;;;;;;;6.57;2.80;;;16.50;63.70;;;16.61;62.78;101876.63;4971482;28;21200;-71
2022/08/11 02:46:31;;;;;;;4.50;3.03;;;16.50;66.80;;;16.49;62.88;101871.84;4979309;28;20499;-71
2022/08/11 02:52:26;;;;;;;5.10;2.33;;;16.40;67.70;;;16.65;62.46;101883.38;4980882;28;20405;-71
2022/08/11 02:55:19;;;;;;;3.00;2.50;;;16.50;68.70;;;16.62;62.60;101873.69;4988997;28;20493;-72
2022/08/11 02:58:17;;;;;;;4.73;3.20;;;16.50;68.20;;;16.52;62.81;101867.81;4987350;28;20443;-72
2022/08/11 03:01:13;;;;;;;5.90;3.93;;;16.50;68.70;;;16.51;62.82;101877.06;4983594;28;20454;-72
2022/08/11 03:03:57;;;;;;;4.07;2.63;;;16.40;69.20;;;16.56;62.78;101876.41;4985266;28;20498;-72
2022/08/11 03:06:48;;;;;;;4.67;2.60;;;16.40;70.40;;;16.47;62.94;101878.56;4973013;28;20430;-73
2022/08/11 03:09:30;;;;;;;3.53;2.40;;;16.40;70.70;;;16.43;62.88;101878.19;4969407;28;20453;-70
2022/08/11 03:18:02;;;;;;;3.50;2.73;;;16.30;74.30;;;16.34;63.24;101884.09;4973192;28;21030;-71
2022/08/11 03:20:43;;;;;;;5.77;2.50;;;16.30;74.10;;;16.28;63.37;101872.13;4971661;28;20813;-71
2022/08/11 03:23:31;;;;;;;2.93;2.63;;;16.30;74.70;;;16.25;63.66;101878.03;4970522;28;20472;-71
2022/08/11 03:26:14;;;;;;;4.90;2.90;;;16.20;77.40;;;16.20;63.80;101879.75;4967622;28;20553;-70
2022/08/11 03:29:00;;;;;;;6.60;3.07;;;16.20;78.70;;;16.28;63.54;101874.88;4971080;28;20879;-71
2022/08/11 03:31:35;;;;;;;4.73;3.77;;;16.20;79.20;;;16.28;63.54;101880.34;4966194;28;20419;-72
2022/08/11 03:34:10;;;;;;;5.20;2.80;;;16.20;79.00;;;16.22;63.70;101874.88;4973450;28;20935;-72
2022/08/11 03:41:41;;;;;;;3.03;2.40;;;16.10;78.90;;;16.22;63.48;101874.88;4969691;28;21344;-72
2022/08/11 03:43:28;;;;;;;3.47;2.80;;;16.10;79.10;;;16.23;63.65;101879.31;4966001;28;20571;-71
2022/08/11 03:46:08;;;;;;;7.30;2.90;;;16.10;79.70;;;16.16;63.81;101878.50;4972995;28;20405;-72
2022/08/11 03:48:54;;;;;;;4.03;3.10;;;16.10;81.30;;;16.16;63.92;101875.78;4966550;28;20425;-71
2022/08/11 03:51:31;;;;;;;4.00;3.60;;;16.10;82.40;;;16.11;64.16;101881.88;4973054;28;20409;-71
2022/08/11 03:54:37;;;;;;;8.97;3.37;;;16.10;83.70;;;16.08;64.23;101880.41;4971661;28;21060;-70
2022/08/11 03:57:50;;;;;;;5.00;3.13;;;16.00;85.00;;;16.19;63.81;101881.63;4971173;28;20776;-71
2022/08/11 04:01:25;;;;;;;6.30;3.80;;;16.00;85.80;;;16.12;63.96;101880.00;4972519;28;20437;-72
2022/08/11 04:05:07;;;;;;;4.70;3.13;;;16.00;85.40;;;16.56;62.51;101880.00;4889284;28;20498;-72
2022/08/11 04:08:55;;;;;;;3.70;3.20;;;16.20;82.80;;;16.62;62.09;101876.44;4972233;28;20426;-71
2022/08/11 04:12:15;;;;;;;5.23;3.60;;;16.30;77.10;;;17.22;60.28;101876.91;4976670;28;20500;-71
2022/08/11 04:16:02;;;;;;;4.70;3.20;;;16.60;72.50;;;18.36;57.03;101879.97;4949204;28;20460;-73
2022/08/11 04:19:42;;;;;;;4.10;3.23;;;17.20;59.60;;;19.22;54.33;101876.06;4959001;28;20731;-72
2022/08/11 04:22:47;;;;;;;3.50;3.07;;;17.90;47.50;;;19.87;52.55;101874.06;4973351;28;20869;-72
2022/08/11 04:26:04;;;;;;;4.33;3.60;;;18.50;39.70;;;20.31;51.34;101873.44;4980042;28;20800;-71
2022/08/11 04:29:09;;;;;;;3.93;3.40;;;19.00;33.40;;;20.87;49.73;101879.19;4970963;28;20438;-73
2022/08/11 04:32:04;;;;;;;4.03;3.13;;;19.50;28.80;;;21.25;48.80;101885.69;4971100;28;20405;-72
2022/08/11 04:35:14;;;;;;;6.23;4.10;;;19.80;26.30;;;21.59;48.04;101891.25;4979327;28;20437;-73
2022/08/11 04:38:19;;;;;;;5.07;3.87;;;20.00;24.00;;;21.82;47.25;101880.03;4971595;28;20433;-73
2022/08/11 04:41:32;;;;;;;4.63;3.10;;;20.30;22.00;;;22.28;46.33;101883.41;4977167;28;20800;-73
2022/08/11 04:45:10;;;;;;;5.70;3.70;;;20.30;20.80;;;22.56;45.30;101880.47;4966799;28;20470;-72
2022/08/11 05:05:29;;;;;;;8.13;3.97;;;22.10;10.50;;;23.91;41.65;101886.72;4975654;28;20520;-72
2022/08/11 05:07:53;;;;;;;6.90;4.00;;;22.30;9.90;;;23.94;41.77;101888.94;4980126;28;20416;-72
2022/08/11 05:10:47;;;;;;;6.90;4.40;;;22.20;9.40;;;24.09;41.64;101891.78;4956234;28;20420;-73
2022/08/11 05:37:18;;;;;;;8.80;3.70;;;20.70;11.00;;;20.43;50.07;101908.31;4980515;28;20437;-72
2022/08/11 05:57:22;;;;;;;5.67;4.20;;;20.00;16.00;;;20.24;51.29;101911.16;4972840;28;20458;-72
2022/08/11 06:00:14;;;;;;;6.50;4.53;;;20.00;16.30;;;20.50;50.71;101912.59;4969393;28;20487;-72
2022/08/11 06:02:46;;;;;;;6.80;5.33;;;20.20;16.30;;;20.51;50.58;101914.25;4972174;28;20485;-72
2022/08/11 06:05:18;;;;;;;8.90;6.47;;;20.20;16.10;;;20.63;50.63;101919.72;4970380;28;20443;-73
2022/08/11 06:07:49;;;;;;;5.77;5.27;;;20.30;16.00;;;20.87;50.45;101915.78;4974885;28;20435;-70
2022/08/11 06:10:33;;;;;;;10.43;5.70;;;20.50;15.90;;;21.08;49.21;101912.34;4970099;28;20439;-72
2022/08/11 06:13:05;;;;;;;11.50;4.90;;;20.70;14.60;;;21.35;48.51;101914.53;4972510;28;20432;-72
2022/08/11 06:15:45;;;;;;;8.77;5.90;;;20.90;14.20;;;21.46;48.19;101914.44;4973713;28;20962;-70
2022/08/11 06:18:16;;;;;;;8.80;6.20;;;21.10;13.50;;;21.49;47.96;101918.63;4973105;28;20891;-72
2022/08/11 06:20:51;;;;;;;8.37;5.80;;;21.20;12.90;;;21.67;46.98;101918.34;4970487;28;20506;-71
2022/08/11 06:23:24;;;;;;;6.83;6.23;;;21.30;11.80;;;21.87;46.54;101921.44;4971863;28;20489;-72
2022/08/11 06:25:54;;;;;;;7.67;6.07;;;21.50;11.20;;;21.92;46.19;101917.91;4969872;28;21032;-72
2022/08/11 06:28:35;;;;;;;7.10;5.60;;;21.50;10.70;;;22.02;46.39;101924.44;4981564;28;20451;-72
2022/08/11 06:31:14;;;;;;;7.40;5.60;;;21.70;10.30;;;22.28;45.36;101927.53;4969215;28;20967;-72
2022/08/11 06:34:00;;;;;;;6.67;5.70;;;21.80;9.90;;;22.38;45.03;101923.00;4971165;28;20425;-71
2022/08/11 06:36:42;;;;;;;7.27;5.60;;;22.00;9.30;;;22.45;45.07;101925.56;4971506;28;20442;-72
2022/08/11 06:39:27;;;;;;;13.07;5.30;;;22.10;8.90;;;22.44;44.97;101927.50;4967218;28;20845;-72
2022/08/11 06:42:06;;;;;;;6.20;5.60;;;22.10;8.60;;;22.54;44.73;101926.78;4970890;28;20438;-72
2022/08/11 06:44:48;;;;;;;8.93;5.70;;;22.20;8.60;;;22.80;44.41;101931.53;4954889;28;20514;-72
2022/08/11 06:47:19;;;;;;;6.57;5.20;;;22.30;8.20;;;23.01;44.13;101931.78;4967317;28;20424;-72
2022/08/11 06:52:37;;;;;;;5.57;5.07;;;22.70;7.50;;;23.30;43.69;101916.59;4947092;28;20451;-72
2022/08/11 06:55:11;;;;;;;6.00;5.17;;;22.90;6.80;;;23.48;43.35;101921.75;4972941;28;20449;-72
2022/08/11 07:00:57;;;;;;;5.63;5.10;;;23.10;6.20;;;23.72;42.36;101923.06;4970188;28;20458;-72
2022/08/11 07:03:33;;;;;;;8.30;5.00;;;23.30;5.30;;;23.49;42.63;101919.84;4967293;28;20569;-71
2022/08/11 07:06:31;;;;;;;10.50;4.90;;;23.20;5.00;;;23.47;42.69;101909.06;4973823;28;20421;-76
2022/08/11 07:16:03;;;;;;;6.83;5.07;;;23.50;4.70;;;23.78;42.29;101915.63;4978573;28;20920;-73
2022/08/11 07:30:28;;;;;;;5.37;4.20;;;24.10;3.40;;;24.39;41.38;101911.34;4981208;28;21317;-73
2022/08/11 07:33:01;;;;;;;4.80;4.30;;;24.10;3.20;;;24.30;41.62;101906.59;4976458;28;20470;-73
2022/08/11 07:35:36;;;;;;;6.50;4.47;;;24.10;3.20;;;24.39;41.77;101911.34;4981020;28;20442;-72
2022/08/11 07:38:11;;;;;;;10.17;4.30;;;24.10;3.30;;;24.73;41.40;101895.16;4977094;28;20528;-72
2022/08/11 07:40:46;;;;;;;7.27;4.23;;;24.30;3.30;;;24.92;40.88;101901.03;4975207;28;20488;-71
2022/08/11 07:43:16;;;;;;;6.83;5.10;;;24.40;2.70;;;25.08;40.56;101898.00;4975027;28;21014;-71
2022/08/11 07:54:16;;;;;;;7.93;4.90;;;25.10;1.20;;;25.37;39.43;101908.53;4963448;28;20471;-73
2022/08/11 07:56:49;;;;;;;5.00;4.13;;;25.10;1.00;;;25.45;39.34;101897.75;4970892;28;20470;-73
2022/08/11 08:19:33;;;;;;;4.90;3.77;;;25.50;1.00;;;26.06;38.23;101905.19;4968705;28;20425;-72
2022/08/11 08:22:03;;;;;;;4.60;4.00;;;25.70;1.00;;;26.10;38.19;101907.09;4976450;28;20541;-72
2022/08/11 08:24:55;;;;;;;6.43;4.90;;;25.80;1.00;;;26.21;37.89;101902.38;4973247;28;20504;-72
2022/08/11 08:27:26;;;;;;;4.80;4.30;;;25.80;1.00;;;26.38;37.41;101900.94;4976335;28;20501;-70
2022/08/11 08:32:50;;;;;;;5.10;3.10;;;26.00;1.00;;;26.80;36.81;101894.91;4990211;28;20432;-72
2022/08/11 08:35:20;;;;;;;5.20;4.77;;;26.30;1.00;;;27.03;36.58;101898.13;4981950;28;20443;-72
2022/08/11 08:37:51;;;;;;;4.13;3.73;;;26.50;1.00;;;27.19;36.54;101892.19;4985330;28;20451;-71
2022/08/11 08:40:21;;;;;;;6.20;3.80;;;26.70;1.00;;;27.27;36.00;101895.44;4986766;28;20450;-73
2022/08/11 08:42:55;;;;;;;7.10;4.30;;;26.80;1.00;;;27.40;36.03;101887.28;4978421;28;20474;-72
2022/08/11 08:45:27;;;;;;;8.40;3.83;;;27.00;1.00;;;27.53;35.71;101891.38;4983688;28;20691;-73
2022/08/11 08:48:02;;;;;;;4.83;4.10;;;27.00;1.00;;;27.24;35.72;101892.16;4981301;28;20439;-71
2022/08/11 08:53:31;;;;;;;5.13;4.53;;;26.70;1.00;;;26.94;36.33;101897.91;4986522;28;20526;-71
2022/08/11 08:56:03;;;;;;;7.03;4.27;;;26.60;1.00;;;27.19;36.38;101889.41;4986377;28;20812;-72
2022/08/11 08:58:34;;;;;;;5.77;4.67;;;26.80;1.00;;;27.28;35.41;101888.78;4987420;28;20457;-72
2022/08/11 09:01:06;;;;;;;4.67;4.10;;;26.90;1.00;;;27.21;35.60;101895.47;4976320;28;20466;-72
2022/08/11 09:03:38;;;;;;;5.00;4.00;;;26.90;1.00;;;27.37;35.33;101885.09;4989242;28;20458;-72
2022/08/11 09:06:31;;;;;;;7.77;4.53;;;27.00;1.00;;;27.42;35.42;101878.66;4986245;28;20463;-72
2022/08/11 09:09:01;;;;;;;6.00;3.90;;;27.00;1.00;;;27.74;34.93;101884.47;4984869;28;20526;-71
2022/08/11 09:14:59;;;;;;;4.10;3.63;;;27.40;1.00;;;27.79;34.21;101881.66;4975667;28;20470;-71
2022/08/11 09:17:19;;;;;;;4.63;3.87;;;27.30;1.00;;;28.18;34.22;101878.75;4984909;28;20441;-71
2022/08/11 09:19:59;;;;;;;4.90;3.50;;;27.70;1.00;;;28.22;33.88;101879.00;4969834;28;20446;-73
2022/08/11 09:28:30;;;;;;;6.00;3.73;;;27.80;1.00;;;28.16;32.66;101888.53;4980426;28;20474;-71
2022/08/11 09:31:02;;;;;;;3.90;3.50;;;27.80;1.00;;;28.06;32.55;101876.38;4979951;28;20523;-71
2022/08/11 09:33:35;;;;;;;5.30;3.43;;;27.70;1.00;;;28.27;32.46;101878.94;4973671;28;20459;-73
2022/08/11 09:41:40;;;;;;;4.27;3.00;;;27.90;1.00;;;28.59;31.78;101867.09;4972421;28;20814;-72
2022/08/11 09:44:48;;;;;;;5.90;4.17;;;28.20;1.00;;;28.72;32.18;101860.81;4959691;28;20805;-73
2022/08/11 09:47:24;;;;;;;5.07;4.57;;;28.20;1.00;;;28.45;32.60;101865.06;4978522;28;20442;-73
2022/08/11 09:49:59;;;;;;;4.03;3.23;;;28.20;1.00;;;28.50;32.11;101864.16;4973832;28;20446;-71
2022/08/11 09:52:37;;;;;;;4.60;3.67;;;28.10;1.00;;;28.44;32.55;101859.78;4976231;28;20485;-72
2022/08/11 09:55:26;;;;;;;9.70;3.70;;;28.10;1.00;;;28.82;31.68;101860.66;4968688;28;20861;-71
2022/08/11 09:58:15;;;;;;;5.60;4.03;;;28.30;1.00;;;29.16;31.04;101852.88;4973089;28;20969;-72
2022/08/11 10:01:06;;;;;;;3.43;3.13;;;28.60;1.00;;;29.06;30.47;101853.03;4977210;28;20508;-72
2022/08/11 10:03:43;;;;;;;3.80;3.40;;;28.60;1.00;;;28.72;31.15;101856.06;4972521;28;20458;-71
2022/08/11 10:09:07;;;;;;;5.17;4.10;;;28.40;1.00;;;28.53;31.36;101850.44;4977057;28;20500;-72
2022/08/11 10:11:40;;;;;;;2.83;2.57;;;28.20;1.00;;;28.65;31.40;101846.41;4990518;28;20474;-71
2022/08/11 10:17:08;;;;;;;4.40;3.70;;;28.50;1.00;;;29.24;29.99;101841.00;4986893;28;20480;-71
2022/08/11 10:19:39;;;;;;;4.00;3.60;;;28.60;1.00;;;29.40;29.51;101833.25;4975369;28;20442;-72
2022/08/11 10:27:58;;;;;;;5.33;3.60;;;28.40;1.00;;;28.78;30.17;101826.19;4968052;28;20453;-72
2022/08/11 10:34:02;;;;;;;4.80;3.57;;;28.10;1.00;;;28.02;31.56;101821.59;4973192;28;20463;-73
2022/08/11 10:36:41;;;;;;;4.27;3.53;;;27.90;1.00;;;28.38;30.53;101821.97;4978955;28;20794;-72
2022/08/11 10:39:17;;;;;;;7.33;4.00;;;28.00;1.00;;;28.53;30.67;101824.56;4974232;28;20467;-71
2022/08/11 10:44:47;;;;;;;3.33;3.03;;;28.20;1.00;;;29.04;29.93;101818.25;4974399;28;20478;-72
2022/08/11 10:47:35;;;;;;;3.90;3.60;;;28.50;1.00;;;28.99;29.85;101815.53;4966413;28;20447;-72
2022/08/11 10:58:48;;;;;;;3.97;3.47;;;29.10;1.00;;;29.97;28.91;101792.81;4965589;28;20495;-72
2022/08/11 11:01:24;;;;;;;4.40;3.40;;;29.40;1.00;;;30.16;28.91;101792.72;4975899;28;20458;-72
2022/08/11 11:04:00;;;;;;;6.67;3.60;;;29.70;1.00;;;29.86;29.09;101790.53;4973802;28;20565;-73
2022/08/11 11:06:42;;;;;;;4.83;4.43;;;29.60;1.00;;;29.99;29.26;101789.72;4981858;28;20888;-73
2022/08/11 11:09:19;;;;;;;3.80;3.50;;;29.60;1.00;;;30.15;28.40;101794.69;4976533;28;20445;-73
2022/08/11 11:18:00;;;;;;;4.30;3.90;;;29.80;1.00;;;30.10;27.99;101788.38;4978740;28;20902;-73
2022/08/11 11:20:36;;;;;;;3.93;3.50;;;29.80;1.00;;;29.84;27.88;101792.81;4978668;28;20859;-74
2022/08/11 11:23:19;;;;;;;7.93;4.40;;;29.60;1.00;;;29.75;28.13;101785.16;4985549;28;20473;-72
2022/08/11 11:26:29;;;;;;;4.43;3.27;;;29.50;1.00;;;29.59;28.48;101783.81;4978765;28;20523;-72
2022/08/11 11:29:46;;;;;;;3.50;3.20;;;29.40;1.00;;;29.30;28.35;101767.34;4987183;28;20454;-72
2022/08/11 11:32:27;;;;;;;4.10;3.47;;;29.10;1.00;;;29.08;28.90;101772.75;4975054;28;20450;-73
2022/08/11 11:35:25;;;;;;;4.57;3.73;;;28.90;1.00;;;29.29;28.60;101767.63;4978978;28;20511;-71
2022/08/11 11:37:57;;;;;;;4.20;3.47;;;28.90;1.00;;;29.32;28.14;101767.88;4988195;28;20451;-73
2022/08/11 11:40:36;;;;;;;3.63;3.33;;;29.00;1.00;;;29.47;28.38;101766.75;4972321;28;21395;-72
2022/08/11 11:43:06;;;;;;;6.03;3.33;;;28.90;1.00;;;29.89;28.07;101764.84;4978568;28;20492;-73
2022/08/11 11:45:38;;;;;;;3.27;2.97;;;29.30;1.00;;;30.00;28.05;101769.06;4975777;28;20474;-75
2022/08/11 11:48:08;;;;;;;9.10;4.03;;;29.40;1.00;;;30.36;27.62;101761.53;4973432;28;20442;-73
2022/08/11 11:50:38;;;;;;;8.60;3.70;;;29.70;1.00;;;30.54;27.27;101763.41;4968095;28;20461;-71
2022/08/11 11:53:10;;;;;;;4.10;3.70;;;29.90;1.00;;;30.57;27.71;101761.94;4972090;28;20467;-72
2022/08/11 11:55:41;;;;;;;5.30;3.53;;;30.00;1.00;;;30.45;27.54;101762.44;4974615;28;20434;-73
2022/08/11 12:01:21;;;;;;;4.00;3.70;;;30.10;1.00;;;29.98;27.77;101749.00;4974082;28;20453;-73
2022/08/11 12:03:52;;;;;;;4.57;4.17;;;29.80;1.00;;;30.01;27.90;101748.41;4972124;28;20466;-73
2022/08/11 12:06:26;;;;;;;4.47;3.30;;;29.70;1.00;;;29.74;27.88;101750.03;4972498;28;20987;-72
2022/08/11 12:08:58;;;;;;;3.77;3.37;;;29.50;1.00;;;29.65;28.19;101740.75;4977335;28;20446;-72
2022/08/11 12:14:22;;;;;;;4.23;3.73;;;29.30;1.00;;;29.42;28.38;101736.19;4974821;28;20462;-72
2022/08/11 12:16:56;;;;;;;5.20;3.80;;;29.20;1.00;;;29.61;28.80;101736.09;4977342;28;20453;-72
2022/08/11 12:19:28;;;;;;;7.87;3.53;;;29.20;1.00;;;29.53;28.54;101726.47;4973557;28;20968;-72
2022/08/11 12:27:39;;;;;;;3.07;2.83;;;29.20;1.00;;;29.49;29.03;101719.03;4973989;28;20442;-73
2022/08/11 12:30:10;;;;;;;3.70;3.40;;;29.20;1.00;;;29.55;27.92;101717.78;4972388;28;20903;-73
2022/08/11 12:32:42;;;;;;;4.00;3.60;;;29.20;1.00;;;29.96;27.73;101718.63;4971754;28;20446;-73
2022/08/11 12:35:16;;;;;;;4.47;3.63;;;29.40;1.00;;;29.89;27.45;101714.59;4971441;28;20448;-73
2022/08/11 12:37:49;;;;;;;4.63;3.43;;;29.40;1.00;;;29.86;27.80;101718.00;4971495;28;20442;-72
2022/08/11 12:46:33;;;;;;;3.43;3.13;;;29.60;1.00;;;30.07;27.16;101703.28;4972115;28;20517;-73
2022/08/11 12:52:07;;;;;;;3.70;3.40;;;29.60;1.00;;;30.03;27.60;101707.03;4970459;28;20446;-72
2022/08/11 12:54:56;;;;;;;4.30;3.30;;;29.60;1.00;;;30.09;27.20;101691.81;4974081;28;20469;-72
2022/08/11 13:06:04;;;;;;;3.63;3.03;;;29.40;1.00;;;29.62;27.38;101680.00;4966615;28;20605;-73
2022/08/11 13:08:37;;;;;;;3.90;3.07;;;29.30;1.00;;;29.86;27.24;101671.41;4971963;28;20438;-73
2022/08/11 13:14:17;;;;;;;3.10;2.80;;;29.50;1.00;;;29.78;27.39;101677.69;4971664;28;20462;-72
2022/08/11 13:19:35;;;;;;;3.53;2.80;;;29.40;1.00;;;29.95;26.63;101674.28;4977667;28;20441;-73
2022/08/11 13:22:06;;;;;;;4.50;2.90;;;29.50;1.00;;;30.11;26.18;101670.03;4977731;28;20448;-73
2022/08/11 13:24:37;;;;;;;3.23;2.90;;;29.60;1.00;;;29.98;26.06;101663.31;4979643;28;20462;-72
2022/08/11 13:27:07;;;;;;;4.13;2.90;;;29.60;1.00;;;29.90;26.33;101663.25;4980726;28;20489;-72
2022/08/11 13:29:39;;;;;;;3.10;2.90;;;29.50;1.00;;;29.91;25.98;101662.94;4982032;28;20862;-72
2022/08/11 13:32:10;;;;;;;4.17;3.70;;;29.50;1.00;;;30.14;26.77;101661.00;4984338;28;20536;-72
2022/08/11 13:34:41;;;;;;;3.63;2.73;;;29.60;1.00;;;30.55;25.61;101653.28;4972365;28;20469;-74
2022/08/11 13:37:16;;;;;;;3.40;3.10;;;29.90;1.00;;;30.73;25.91;101650.63;4976522;28;20431;-73
2022/08/11 13:39:46;;;;;;;3.43;3.13;;;30.00;1.00;;;30.87;25.70;101649.41;4969158;28;20531;-72
2022/08/11 13:42:20;;;;;;;3.90;3.20;;;30.20;1.00;;;30.92;24.97;101656.81;4977962;28;20921;-72
2022/08/11 13:44:50;;;;;;;3.17;2.90;;;30.30;1.00;;;31.03;25.07;101652.66;4972598;28;20467;-74
2022/08/11 13:47:22;;;;;;;3.00;2.57;;;30.40;1.00;;;31.04;24.88;101643.09;4981791;28;20458;-72
2022/08/11 13:49:52;;;;;;;4.17;3.00;;;30.50;1.00;;;30.84;25.20;101636.06;4971839;28;20451;-72
2022/08/11 13:52:25;;;;;;;5.07;2.90;;;30.50;1.00;;;30.71;25.43;101639.75;4973721;28;20466;-72
2022/08/11 13:54:57;;;;;;;2.73;2.53;;;30.40;1.00;;;30.63;25.18;101641.38;4979369;28;20461;-73
2022/08/11 13:57:26;;;;;;;3.50;3.20;;;30.30;1.00;;;30.21;25.54;101647.41;4982204;28;20435;-72
2022/08/11 14:00:16;;;;;;;3.83;2.60;;;30.00;1.00;;;30.18;25.05;101637.72;4991441;28;20469;-73
2022/08/11 14:02:58;;;;;;;4.37;2.20;;;29.90;1.00;;;30.19;25.68;101635.75;4985764;28;20485;-73
2022/08/11 14:05:48;;;;;;;3.43;2.90;;;29.90;1.00;;;30.41;25.12;101630.16;4979751;28;20490;-72
2022/08/11 14:08:26;;;;;;;3.30;2.70;;;29.90;1.00;;;30.56;25.10;101626.19;4982946;28;20496;-74
2022/08/11 14:14:25;;;;;;;6.30;2.33;;;30.10;1.00;;;30.64;25.00;101617.06;4976871;28;20474;-72
2022/08/11 14:16:58;;;;;;;2.00;1.77;;;30.20;1.00;;;30.49;24.87;101625.84;4971544;28;20441;-73
2022/08/11 14:19:29;;;;;;;2.90;2.60;;;30.20;1.00;;;30.34;24.72;101627.00;4972166;28;20454;-73
2022/08/11 14:22:08;;;;;;;4.73;2.70;;;30.10;1.00;;;30.00;25.18;101623.94;4963721;28;20452;-73
2022/08/11 14:24:42;;;;;;;2.40;1.60;;;29.90;1.00;;;30.18;24.67;101622.94;4972238;28;20780;-72
2022/08/11 14:27:14;;;;;;;2.77;2.50;;;29.80;1.00;;;30.45;24.74;101619.22;4975427;28;20904;-73
2022/08/11 14:30:53;;;;;;;5.33;2.50;;;30.00;1.00;;;30.46;24.61;101604.94;4978459;28;20441;-72
2022/08/11 14:32:57;;;;;;;2.43;2.10;;;30.10;1.00;;;30.26;24.74;101613.78;4971876;28;20458;-73
2022/08/11 14:35:29;;;;;;;6.07;2.40;;;30.00;1.00;;;30.25;24.66;101609.38;4973105;28;20529;-73
2022/08/11 14:37:59;;;;;;;5.10;2.40;;;29.90;1.00;;;30.28;24.61;101602.31;4969258;28;20589;-72
2022/08/11 14:49:16;;;;;;;4.83;2.50;;;30.00;1.00;;;30.48;24.35;101597.06;4970737;28;20445;-74
2022/08/11 14:51:48;;;;;;;2.60;2.40;;;30.10;1.00;;;30.44;24.29;101600.81;4969096;28;20446;-74
2022/08/11 14:57:06;;;;;;;2.40;2.00;;;30.00;1.00;;;30.33;24.18;101600.22;4970447;28;20442;-75
2022/08/11 14:59:36;;;;;;;2.80;2.20;;;30.00;1.00;;;30.08;24.09;101598.06;4972110;28;20436;-74
2022/08/11 15:04:56;;;;;;;5.33;1.93;;;29.70;1.00;;;30.07;24.05;101590.81;4969119;28;20821;-75
2022/08/11 15:07:29;;;;;;;2.80;2.40;;;29.70;1.00;;;29.97;24.10;101602.22;4954623;28;20556;-73
2022/08/11 15:10:01;;;;;;;8.83;2.20;;;29.70;1.00;;;29.97;23.87;101591.06;4970599;28;20825;-73
2022/08/11 15:12:43;;;;;;;4.10;1.57;;;29.60;1.00;;;30.08;23.79;101578.53;4972100;28;20845;-72
2022/08/11 15:18:05;;;;;;;2.40;1.73;;;29.60;1.00;;;29.79;23.83;101590.06;4974114;28;20439;-73
2022/08/11 15:26:15;;;;;;;1.90;1.50;;;29.40;1.00;;;29.89;24.33;101581.50;4973366;28;20457;-72
2022/08/11 15:37:30;;;;;;;2.30;1.50;;;29.50;1.00;;;29.96;23.58;101567.94;4983865;28;20439;-72
2022/08/11 15:46:14;;;;;;;5.13;1.97;;;29.40;1.00;;;29.75;23.57;101566.75;4972504;28;20984;-72
2022/08/11 15:48:51;;;;;;;3.97;1.93;;;29.30;1.00;;;29.70;23.73;101569.66;4973374;28;20442;-71
2022/08/11 15:51:30;;;;;;;1.83;1.50;;;29.30;1.00;;;29.53;23.77;101569.50;4972430;28;20453;-71